sensor_id;sensor_type;location;lat;lon;timestamp;P1;durP1;ratioP1;P2;durP2;ratioP2
29414;SDS011;20303;48.302;11.914;2022-12-17T00:07:33;40.95;;;22.98;;
29414;SDS011;20303;48.302;11.914;2022-12-17T00:18:00;40.45;;;22.20;;
29414;SDS011;20303;48.302;11.914;2022-12-17T00:28:20;37.47;;;21.38;;
29414;SDS011;20303;48.302;11.914;2022-12-17T00:38:40;35.63;;;20.52;;
29414;SDS011;20303;48.302;11.914;2022-12-17T00:48:59;35.13;;;19.70;;
29414;SDS011;20303;48.302;11.914;2022-12-17T00:59:19;33.03;;;18.70;;
29414;SDS011;20303;48.302;11.914;2022-12-17T01:09:38;27.67;;;17.83;;
29414;SDS011;20303;48.302;11.914;2022-12-17T01:19:58;28.45;;;17.13;;
29414;SDS011;20303;48.302;11.914;2022-12-17T01:30:18;28.38;;;16.55;;
29414;SDS011;20303;48.302;11.914;2022-12-17T01:40:37;26.40;;;15.50;;
29414;SDS011;20303;48.302;11.914;2022-12-17T01:50:57;22.80;;;14.30;;
29414;SDS011;20303;48.302;11.914;2022-12-17T02:01:17;24.23;;;14.75;;
29414;SDS011;20303;48.302;11.914;2022-12-17T02:22:19;21.60;;;13.02;;
29414;SDS011;20303;48.302;11.914;2022-12-17T02:32:50;19.30;;;12.05;;
29414;SDS011;20303;48.302;11.914;2022-12-17T02:43:10;21.00;;;12.20;;
29414;SDS011;20303;48.302;11.914;2022-12-17T02:53:33;19.05;;;11.63;;
29414;SDS011;20303;48.302;11.914;2022-12-17T03:03:58;16.40;;;10.38;;
29414;SDS011;20303;48.302;11.914;2022-12-17T03:14:18;16.02;;;10.30;;
29414;SDS011;20303;48.302;11.914;2022-12-17T03:24:38;15.50;;;9.88;;
29414;SDS011;20303;48.302;11.914;2022-12-17T03:34:57;14.48;;;9.00;;
29414;SDS011;20303;48.302;11.914;2022-12-17T03:45:17;14.25;;;9.02;;
29414;SDS011;20303;48.302;11.914;2022-12-17T03:55:36;12.27;;;8.20;;
29414;SDS011;20303;48.302;11.914;2022-12-17T04:05:56;12.88;;;8.35;;
29414;SDS011;20303;48.302;11.914;2022-12-17T04:16:16;12.20;;;8.05;;
29414;SDS011;20303;48.302;11.914;2022-12-17T04:26:35;12.13;;;8.00;;
29414;SDS011;20303;48.302;11.914;2022-12-17T04:36:55;11.60;;;7.47;;
29414;SDS011;20303;48.302;11.914;2022-12-17T04:47:15;10.63;;;7.05;;
29414;SDS011;20303;48.302;11.914;2022-12-17T04:57:34;11.27;;;6.95;;
29414;SDS011;20303;48.302;11.914;2022-12-17T05:07:54;9.80;;;6.30;;
29414;SDS011;20303;48.302;11.914;2022-12-17T05:18:14;8.65;;;5.88;;
29414;SDS011;20303;48.302;11.914;2022-12-17T05:28:34;8.30;;;5.97;;
29414;SDS011;20303;48.302;11.914;2022-12-17T05:38:53;8.88;;;5.85;;
29414;SDS011;20303;48.302;11.914;2022-12-17T05:49:13;7.53;;;5.55;;
29414;SDS011;20303;48.302;11.914;2022-12-17T05:59:33;8.15;;;5.60;;
29414;SDS011;20303;48.302;11.914;2022-12-17T06:09:52;10.45;;;5.60;;
29414;SDS011;20303;48.302;11.914;2022-12-17T06:20:12;10.73;;;5.95;;
29414;SDS011;20303;48.302;11.914;2022-12-17T06:30:32;10.25;;;5.53;;
29414;SDS011;20303;48.302;11.914;2022-12-17T06:40:51;9.05;;;5.38;;
29414;SDS011;20303;48.302;11.914;2022-12-17T06:51:11;9.23;;;5.40;;
29414;SDS011;20303;48.302;11.914;2022-12-17T07:01:47;11.38;;;5.30;;
29414;SDS011;20303;48.302;11.914;2022-12-17T07:12:07;10.15;;;5.82;;
29414;SDS011;20303;48.302;11.914;2022-12-17T07:22:27;10.05;;;5.10;;
29414;SDS011;20303;48.302;11.914;2022-12-17T07:32:46;9.65;;;5.35;;
29414;SDS011;20303;48.302;11.914;2022-12-17T07:43:15;9.25;;;5.25;;
29414;SDS011;20303;48.302;11.914;2022-12-17T07:53:34;11.05;;;5.43;;
29414;SDS011;20303;48.302;11.914;2022-12-17T08:03:59;9.05;;;5.10;;
29414;SDS011;20303;48.302;11.914;2022-12-17T08:14:19;10.07;;;5.47;;
29414;SDS011;20303;48.302;11.914;2022-12-17T08:24:38;11.05;;;5.85;;
29414;SDS011;20303;48.302;11.914;2022-12-17T08:34:58;10.45;;;5.38;;
29414;SDS011;20303;48.302;11.914;2022-12-17T08:45:18;14.02;;;5.82;;
29414;SDS011;20303;48.302;11.914;2022-12-17T08:55:37;11.23;;;5.93;;
29414;SDS011;20303;48.302;11.914;2022-12-17T09:05:57;9.30;;;5.55;;
29414;SDS011;20303;48.302;11.914;2022-12-17T09:16:18;9.52;;;5.70;;
29414;SDS011;20303;48.302;11.914;2022-12-17T09:26:38;10.93;;;6.33;;
29414;SDS011;20303;48.302;11.914;2022-12-17T09:36:57;16.95;;;7.13;;
29414;SDS011;20303;48.302;11.914;2022-12-17T09:57:36;17.67;;;7.55;;
29414;SDS011;20303;48.302;11.914;2022-12-17T10:08:06;17.67;;;7.63;;
29414;SDS011;20303;48.302;11.914;2022-12-17T10:18:35;18.95;;;8.07;;
29414;SDS011;20303;48.302;11.914;2022-12-17T10:29:02;12.93;;;7.15;;
29414;SDS011;20303;48.302;11.914;2022-12-17T10:39:23;17.65;;;7.13;;
29414;SDS011;20303;48.302;11.914;2022-12-17T10:49:44;14.90;;;7.35;;
29414;SDS011;20303;48.302;11.914;2022-12-17T11:00:13;18.00;;;7.93;;
29414;SDS011;20303;48.302;11.914;2022-12-17T11:10:49;33.38;;;8.38;;
29414;SDS011;20303;48.302;11.914;2022-12-17T11:21:14;25.30;;;9.07;;
29414;SDS011;20303;48.302;11.914;2022-12-17T11:42:08;24.95;;;9.07;;
29414;SDS011;20303;48.302;11.914;2022-12-17T12:13:48;23.45;;;8.80;;
29414;SDS011;20303;48.302;11.914;2022-12-17T12:24:45;22.25;;;9.32;;
29414;SDS011;20303;48.302;11.914;2022-12-17T12:35:23;21.88;;;9.38;;
29414;SDS011;20303;48.302;11.914;2022-12-17T12:45:57;20.15;;;8.85;;
29414;SDS011;20303;48.302;11.914;2022-12-17T12:56:32;20.90;;;8.68;;
29414;SDS011;20303;48.302;11.914;2022-12-17T13:06:54;19.60;;;8.77;;
29414;SDS011;20303;48.302;11.914;2022-12-17T13:17:06;17.45;;;7.82;;
29414;SDS011;20303;48.302;11.914;2022-12-17T13:47:59;15.93;;;7.80;;
29414;SDS011;20303;48.302;11.914;2022-12-17T13:58:00;16.05;;;8.80;;
29414;SDS011;20303;48.302;11.914;2022-12-17T14:08:01;14.63;;;8.10;;
29414;SDS011;20303;48.302;11.914;2022-12-17T14:18:04;16.98;;;9.43;;
29414;SDS011;20303;48.302;11.914;2022-12-17T14:28:17;12.60;;;8.20;;
29414;SDS011;20303;48.302;11.914;2022-12-17T14:38:22;13.77;;;8.30;;
29414;SDS011;20303;48.302;11.914;2022-12-17T14:48:24;12.00;;;7.82;;
29414;SDS011;20303;48.302;11.914;2022-12-17T14:58:46;15.40;;;8.32;;
29414;SDS011;20303;48.302;11.914;2022-12-17T15:18:48;20.97;;;13.33;;
29414;SDS011;20303;48.302;11.914;2022-12-17T15:28:49;25.13;;;15.63;;
29414;SDS011;20303;48.302;11.914;2022-12-17T15:48:51;39.75;;;16.33;;
29414;SDS011;20303;48.302;11.914;2022-12-17T15:58:55;36.45;;;18.52;;
29414;SDS011;20303;48.302;11.914;2022-12-17T16:08:57;45.15;;;19.88;;
29414;SDS011;20303;48.302;11.914;2022-12-17T16:18:58;45.22;;;20.67;;
29414;SDS011;20303;48.302;11.914;2022-12-17T16:29:01;40.47;;;19.73;;
29414;SDS011;20303;48.302;11.914;2022-12-17T16:39:02;37.60;;;19.77;;
29414;SDS011;20303;48.302;11.914;2022-12-17T16:49:04;30.92;;;18.85;;
29414;SDS011;20303;48.302;11.914;2022-12-17T16:59:11;33.05;;;18.80;;
29414;SDS011;20303;48.302;11.914;2022-12-17T17:09:13;36.15;;;20.00;;
29414;SDS011;20303;48.302;11.914;2022-12-17T17:19:14;35.67;;;18.85;;
29414;SDS011;20303;48.302;11.914;2022-12-17T17:29:15;35.60;;;20.15;;
29414;SDS011;20303;48.302;11.914;2022-12-17T17:39:17;32.90;;;20.02;;
29414;SDS011;20303;48.302;11.914;2022-12-17T17:49:18;33.72;;;19.58;;
29414;SDS011;20303;48.302;11.914;2022-12-17T18:09:21;35.28;;;20.63;;
29414;SDS011;20303;48.302;11.914;2022-12-17T18:19:22;35.85;;;19.85;;
29414;SDS011;20303;48.302;11.914;2022-12-17T18:39:25;32.28;;;19.63;;
29414;SDS011;20303;48.302;11.914;2022-12-17T18:59:28;33.20;;;19.17;;
29414;SDS011;20303;48.302;11.914;2022-12-17T19:09:30;31.90;;;18.50;;
29414;SDS011;20303;48.302;11.914;2022-12-17T19:19:35;31.65;;;18.17;;
29414;SDS011;20303;48.302;11.914;2022-12-17T19:39:37;27.50;;;17.33;;
29414;SDS011;20303;48.302;11.914;2022-12-17T19:49:38;27.58;;;17.90;;
29414;SDS011;20303;48.302;11.914;2022-12-17T20:09:40;23.40;;;15.93;;
29414;SDS011;20303;48.302;11.914;2022-12-17T20:19:43;25.92;;;16.58;;
29414;SDS011;20303;48.302;11.914;2022-12-17T20:29:44;23.33;;;15.80;;
29414;SDS011;20303;48.302;11.914;2022-12-17T20:39:45;20.70;;;14.98;;
29414;SDS011;20303;48.302;11.914;2022-12-17T20:59:48;22.77;;;14.73;;
29414;SDS011;20303;48.302;11.914;2022-12-17T21:19:50;23.67;;;14.73;;
29414;SDS011;20303;48.302;11.914;2022-12-17T21:29:51;22.63;;;14.43;;
29414;SDS011;20303;48.302;11.914;2022-12-17T21:39:52;22.50;;;14.35;;
29414;SDS011;20303;48.302;11.914;2022-12-17T21:59:54;23.85;;;14.85;;
29414;SDS011;20303;48.302;11.914;2022-12-17T22:19:56;26.40;;;15.15;;
29414;SDS011;20303;48.302;11.914;2022-12-17T22:40:17;29.38;;;15.95;;
29414;SDS011;20303;48.302;11.914;2022-12-17T22:50:19;29.58;;;16.40;;
29414;SDS011;20303;48.302;11.914;2022-12-17T23:00:21;24.73;;;15.38;;
29414;SDS011;20303;48.302;11.914;2022-12-17T23:10:24;29.20;;;15.65;;
29414;SDS011;20303;48.302;11.914;2022-12-17T23:20:26;30.33;;;15.77;;
29414;SDS011;20303;48.302;11.914;2022-12-17T23:30:28;28.60;;;15.52;;
29414;SDS011;20303;48.302;11.914;2022-12-17T23:40:30;26.98;;;15.05;;
